Tropical Cyclones
[Index]
Main Index Home Page Stock Weather Photos Extreme Storms Discussion Storm News and Storm Chasing Reports Tropical Cyclones / Hurricanes / Typhoons Weather Data and Links Wild Fires / Bushfires Weather Observation Techniques Weather Picture Catalogue Tornado Pictures and Reports Stock Video Footage and DVDs for sale
Season 2013-2014 Tropical Cyclone 201401 Track Map
Season 2013-2014 Summaries: [BoM-AU] [JTWC-AU] [JTWC-SIO] [JTWC-SPAC] [JTWC-SH]
<<- Previous TC | JTWC 2013-2014 Season | Next TC ->>

click for intensity scale information  Lat/long Grid: Show Hide

 Date Labels: Show Hide

Joint Typhoon Warning Centre Cyclone Data

Name: 201401

23 Oct 2013 12:00 UTC to 29 Oct 2013 18:00 UTC

    date/time    lat    long     hPa   cat  kts
2013-10-23 12    8.6    77.1    1007         20          
2013-10-23 18    8.9    76.0    1007         20          
2013-10-24 00    9.1    75.0    1007         20          
2013-10-24 06    9.0    73.9    1007         20          
2013-10-24 12    8.7    72.9    1007         20          
2013-10-24 18    8.7    71.8    1007         20          
2013-10-25 00    9.0    70.7    1004         25          
2013-10-25 06    9.1    69.8    1004         25          
2013-10-25 12    9.3    69.1    1004         25          
2013-10-25 18    9.6    68.6    1000         30          
2013-10-26 00   10.0    68.1    1000         30          
2013-10-26 06   10.7    67.8    1000         30          
2013-10-26 12   11.2    67.2     996         35          
2013-10-26 18   11.8    66.5     996         35          
2013-10-27 00   12.5    65.7     993    1    40          
2013-10-27 06   13.0    64.9     996         35          
2013-10-27 12   12.8    64.0    1000         30          
2013-10-27 18   13.0    63.1    1004         25          
2013-10-28 00   13.2    62.6    1004         25          
2013-10-28 06   13.5    62.2    1004         25          
2013-10-28 12   14.1    61.7    1007         20          
2013-10-28 18   15.1    60.5    1007         20          
2013-10-29 00   14.7    58.6    1007         20          
2013-10-29 06   14.1    57.2    1007         20          
2013-10-29 12   13.5    55.6    1007         20          
2013-10-29 18   13.1    54.3    1007         20          
Winds are 1-min average.

Tropical cyclone tracks developed by Michael Bath using data from the Joint Typhoon Warning Centre Best Tracks and Google Maps.


[Australian Severe Weather index] [Copyright Notice] [Email Contacts] [Search This Site] [Privacy Policy]
Document: tropical_cyclone_201401.htm Updated: 28 June 2017